sensor_id;sensor_type;location;lat;lon;timestamp;temperature;humidity
21559;DHT22;10940;48.890;8.240;2023-08-21T00:00:44;23.00;99.90
21559;DHT22;10940;48.890;8.240;2023-08-21T00:03:09;23.00;99.90
21559;DHT22;10940;48.890;8.240;2023-08-21T00:05:35;23.00;99.90
21559;DHT22;10940;48.890;8.240;2023-08-21T00:08:00;23.00;99.90
21559;DHT22;10940;48.890;8.240;2023-08-21T00:14:07;23.00;99.90
21559;DHT22;10940;48.890;8.240;2023-08-21T00:16:32;23.00;99.90
21559;DHT22;10940;48.890;8.240;2023-08-21T00:18:58;23.00;99.90
21559;DHT22;10940;48.890;8.240;2023-08-21T00:21:23;23.00;99.90
21559;DHT22;10940;48.890;8.240;2023-08-21T00:23:49;23.00;99.90
21559;DHT22;10940;48.890;8.240;2023-08-21T00:26:15;23.00;99.90
21559;DHT22;10940;48.890;8.240;2023-08-21T00:28:40;22.90;99.90
21559;DHT22;10940;48.890;8.240;2023-08-21T00:31:06;22.80;99.90
21559;DHT22;10940;48.890;8.240;2023-08-21T00:33:32;22.80;99.90
21559;DHT22;10940;48.890;8.240;2023-08-21T00:35:58;22.80;99.90
21559;DHT22;10940;48.890;8.240;2023-08-21T00:38:24;22.70;99.90
21559;DHT22;10940;48.890;8.240;2023-08-21T00:40:50;22.70;99.90
21559;DHT22;10940;48.890;8.240;2023-08-21T00:43:15;22.60;99.90
21559;DHT22;10940;48.890;8.240;2023-08-21T00:45:43;22.60;99.90
21559;DHT22;10940;48.890;8.240;2023-08-21T00:48:10;22.60;99.90
21559;DHT22;10940;48.890;8.240;2023-08-21T00:50:37;22.60;99.90
21559;DHT22;10940;48.890;8.240;2023-08-21T00:53:02;22.50;99.90
21559;DHT22;10940;48.890;8.240;2023-08-21T00:55:29;22.50;99.90
21559;DHT22;10940;48.890;8.240;2023-08-21T00:57:55;22.50;99.90
21559;DHT22;10940;48.890;8.240;2023-08-21T01:00:21;22.50;99.90
21559;DHT22;10940;48.890;8.240;2023-08-21T01:02:48;22.50;99.90
21559;DHT22;10940;48.890;8.240;2023-08-21T01:05:13;22.50;99.90
21559;DHT22;10940;48.890;8.240;2023-08-21T01:07:48;22.50;99.90
21559;DHT22;10940;48.890;8.240;2023-08-21T01:10:43;22.50;99.90
21559;DHT22;10940;48.890;8.240;2023-08-21T01:13:30;22.40;99.90
21559;DHT22;10940;48.890;8.240;2023-08-21T01:16:00;22.40;99.90
21559;DHT22;10940;48.890;8.240;2023-08-21T01:18:28;22.40;99.90
21559;DHT22;10940;48.890;8.240;2023-08-21T01:20:54;22.40;99.90
21559;DHT22;10940;48.890;8.240;2023-08-21T01:23:37;22.40;99.90
21559;DHT22;10940;48.890;8.240;2023-08-21T01:26:03;22.40;99.90
21559;DHT22;10940;48.890;8.240;2023-08-21T01:28:33;22.30;99.90
21559;DHT22;10940;48.890;8.240;2023-08-21T01:31:21;22.30;99.90
21559;DHT22;10940;48.890;8.240;2023-08-21T01:33:53;22.20;99.90
21559;DHT22;10940;48.890;8.240;2023-08-21T01:36:20;22.20;99.90
21559;DHT22;10940;48.890;8.240;2023-08-21T01:38:45;22.10;99.90
21559;DHT22;10940;48.890;8.240;2023-08-21T01:41:11;22.10;99.90
21559;DHT22;10940;48.890;8.240;2023-08-21T01:43:37;22.10;99.90
21559;DHT22;10940;48.890;8.240;2023-08-21T01:46:03;22.10;99.90
21559;DHT22;10940;48.890;8.240;2023-08-21T01:48:29;22.00;99.90
21559;DHT22;10940;48.890;8.240;2023-08-21T01:50:54;22.00;99.90
21559;DHT22;10940;48.890;8.240;2023-08-21T01:53:20;22.00;99.90
21559;DHT22;10940;48.890;8.240;2023-08-21T01:55:45;22.00;99.90
21559;DHT22;10940;48.890;8.240;2023-08-21T01:58:12;21.90;99.90
21559;DHT22;10940;48.890;8.240;2023-08-21T02:00:38;21.90;99.90
21559;DHT22;10940;48.890;8.240;2023-08-21T02:03:03;21.90;99.90
21559;DHT22;10940;48.890;8.240;2023-08-21T02:05:29;21.90;99.90
21559;DHT22;10940;48.890;8.240;2023-08-21T02:07:55;21.80;99.90
21559;DHT22;10940;48.890;8.240;2023-08-21T02:10:20;21.80;99.90
21559;DHT22;10940;48.890;8.240;2023-08-21T02:12:46;21.80;99.90
21559;DHT22;10940;48.890;8.240;2023-08-21T02:15:11;21.80;99.90
21559;DHT22;10940;48.890;8.240;2023-08-21T02:17:37;21.70;99.90
21559;DHT22;10940;48.890;8.240;2023-08-21T02:20:03;21.70;99.90
21559;DHT22;10940;48.890;8.240;2023-08-21T02:22:29;21.70;99.90
21559;DHT22;10940;48.890;8.240;2023-08-21T02:24:54;21.70;99.90
21559;DHT22;10940;48.890;8.240;2023-08-21T02:27:20;21.70;99.90
21559;DHT22;10940;48.890;8.240;2023-08-21T02:29:45;21.60;99.90
21559;DHT22;10940;48.890;8.240;2023-08-21T02:32:11;21.60;99.90
21559;DHT22;10940;48.890;8.240;2023-08-21T02:34:36;21.60;99.90
21559;DHT22;10940;48.890;8.240;2023-08-21T02:37:02;21.60;99.90
21559;DHT22;10940;48.890;8.240;2023-08-21T02:39:28;21.60;99.90
21559;DHT22;10940;48.890;8.240;2023-08-21T02:41:54;21.60;99.90
21559;DHT22;10940;48.890;8.240;2023-08-21T02:44:19;21.60;99.90
21559;DHT22;10940;48.890;8.240;2023-08-21T02:46:44;21.60;99.90
21559;DHT22;10940;48.890;8.240;2023-08-21T02:49:10;21.60;99.90
21559;DHT22;10940;48.890;8.240;2023-08-21T02:51:36;21.50;99.90
21559;DHT22;10940;48.890;8.240;2023-08-21T02:54:01;21.50;99.90
21559;DHT22;10940;48.890;8.240;2023-08-21T02:56:27;21.50;99.90
21559;DHT22;10940;48.890;8.240;2023-08-21T02:58:52;21.50;99.90
21559;DHT22;10940;48.890;8.240;2023-08-21T03:01:18;21.40;99.90
21559;DHT22;10940;48.890;8.240;2023-08-21T03:03:44;21.40;99.90
21559;DHT22;10940;48.890;8.240;2023-08-21T03:06:09;21.40;99.90
21559;DHT22;10940;48.890;8.240;2023-08-21T03:08:35;21.40;99.90
21559;DHT22;10940;48.890;8.240;2023-08-21T03:11:00;21.40;99.90
21559;DHT22;10940;48.890;8.240;2023-08-21T03:13:26;21.40;99.90
21559;DHT22;10940;48.890;8.240;2023-08-21T03:15:52;21.30;99.90
21559;DHT22;10940;48.890;8.240;2023-08-21T03:18:18;21.30;99.90
21559;DHT22;10940;48.890;8.240;2023-08-21T03:20:45;21.30;99.90
21559;DHT22;10940;48.890;8.240;2023-08-21T03:23:11;21.20;99.90
21559;DHT22;10940;48.890;8.240;2023-08-21T03:25:36;21.20;99.90
21559;DHT22;10940;48.890;8.240;2023-08-21T03:28:02;21.20;99.90
21559;DHT22;10940;48.890;8.240;2023-08-21T03:30:28;21.20;99.90
21559;DHT22;10940;48.890;8.240;2023-08-21T03:32:53;21.20;99.90
21559;DHT22;10940;48.890;8.240;2023-08-21T03:35:19;21.10;99.90
21559;DHT22;10940;48.890;8.240;2023-08-21T03:37:44;21.10;99.90
21559;DHT22;10940;48.890;8.240;2023-08-21T03:40:10;21.10;99.90
21559;DHT22;10940;48.890;8.240;2023-08-21T03:42:36;21.10;99.90
21559;DHT22;10940;48.890;8.240;2023-08-21T03:45:02;21.20;99.90
21559;DHT22;10940;48.890;8.240;2023-08-21T03:47:30;21.10;99.90
21559;DHT22;10940;48.890;8.240;2023-08-21T03:49:55;21.10;99.90
21559;DHT22;10940;48.890;8.240;2023-08-21T03:52:21;21.10;99.90
21559;DHT22;10940;48.890;8.240;2023-08-21T03:54:47;21.10;99.90
21559;DHT22;10940;48.890;8.240;2023-08-21T03:57:12;21.10;99.90
21559;DHT22;10940;48.890;8.240;2023-08-21T03:59:38;21.00;99.90
21559;DHT22;10940;48.890;8.240;2023-08-21T04:02:03;21.00;99.90
21559;DHT22;10940;48.890;8.240;2023-08-21T04:04:29;21.00;99.90
21559;DHT22;10940;48.890;8.240;2023-08-21T04:06:55;20.80;99.90
21559;DHT22;10940;48.890;8.240;2023-08-21T04:09:20;21.00;99.90
21559;DHT22;10940;48.890;8.240;2023-08-21T04:11:46;20.90;99.90
21559;DHT22;10940;48.890;8.240;2023-08-21T04:14:11;20.90;99.90
21559;DHT22;10940;48.890;8.240;2023-08-21T04:16:37;20.90;99.90
21559;DHT22;10940;48.890;8.240;2023-08-21T04:19:03;20.90;99.90
21559;DHT22;10940;48.890;8.240;2023-08-21T04:21:29;20.80;99.90
21559;DHT22;10940;48.890;8.240;2023-08-21T04:23:54;20.80;99.90
21559;DHT22;10940;48.890;8.240;2023-08-21T04:26:20;20.80;99.90
21559;DHT22;10940;48.890;8.240;2023-08-21T04:28:46;20.80;99.90
21559;DHT22;10940;48.890;8.240;2023-08-21T04:31:12;20.80;99.90
21559;DHT22;10940;48.890;8.240;2023-08-21T04:33:39;20.80;99.90
21559;DHT22;10940;48.890;8.240;2023-08-21T04:36:04;20.80;99.90
21559;DHT22;10940;48.890;8.240;2023-08-21T04:38:30;20.80;99.90
21559;DHT22;10940;48.890;8.240;2023-08-21T04:40:56;20.70;99.90
21559;DHT22;10940;48.890;8.240;2023-08-21T04:43:21;20.70;99.90
21559;DHT22;10940;48.890;8.240;2023-08-21T04:45:50;20.80;99.90
21559;DHT22;10940;48.890;8.240;2023-08-21T04:48:16;20.70;99.90
21559;DHT22;10940;48.890;8.240;2023-08-21T04:50:42;20.70;99.90
21559;DHT22;10940;48.890;8.240;2023-08-21T04:53:08;20.70;99.90
21559;DHT22;10940;48.890;8.240;2023-08-21T04:55:33;20.70;99.90
21559;DHT22;10940;48.890;8.240;2023-08-21T04:57:59;20.80;99.90
21559;DHT22;10940;48.890;8.240;2023-08-21T05:00:25;20.70;99.90
21559;DHT22;10940;48.890;8.240;2023-08-21T05:02:50;20.80;99.90
21559;DHT22;10940;48.890;8.240;2023-08-21T05:05:16;20.90;99.90
21559;DHT22;10940;48.890;8.240;2023-08-21T05:07:41;20.90;99.90
21559;DHT22;10940;48.890;8.240;2023-08-21T05:10:07;20.80;99.90
21559;DHT22;10940;48.890;8.240;2023-08-21T05:12:33;20.90;99.90
21559;DHT22;10940;48.890;8.240;2023-08-21T05:14:59;20.90;99.90
21559;DHT22;10940;48.890;8.240;2023-08-21T05:17:24;21.00;99.90
21559;DHT22;10940;48.890;8.240;2023-08-21T05:19:51;21.00;99.90
21559;DHT22;10940;48.890;8.240;2023-08-21T05:22:16;21.00;99.90
21559;DHT22;10940;48.890;8.240;2023-08-21T05:24:42;21.10;99.90
21559;DHT22;10940;48.890;8.240;2023-08-21T05:27:08;21.10;99.90
21559;DHT22;10940;48.890;8.240;2023-08-21T05:29:33;21.20;99.90
21559;DHT22;10940;48.890;8.240;2023-08-21T05:32:00;21.20;99.90
21559;DHT22;10940;48.890;8.240;2023-08-21T05:34:25;21.20;99.90
21559;DHT22;10940;48.890;8.240;2023-08-21T05:36:51;21.30;99.90
21559;DHT22;10940;48.890;8.240;2023-08-21T05:39:19;21.30;99.90
21559;DHT22;10940;48.890;8.240;2023-08-21T05:41:45;21.40;99.90
21559;DHT22;10940;48.890;8.240;2023-08-21T05:44:11;21.40;99.90
21559;DHT22;10940;48.890;8.240;2023-08-21T05:46:36;21.50;99.90
21559;DHT22;10940;48.890;8.240;2023-08-21T05:49:03;21.60;99.90
21559;DHT22;10940;48.890;8.240;2023-08-21T05:51:29;21.60;99.90
21559;DHT22;10940;48.890;8.240;2023-08-21T05:53:54;21.70;99.90
21559;DHT22;10940;48.890;8.240;2023-08-21T05:56:21;21.70;99.90
21559;DHT22;10940;48.890;8.240;2023-08-21T05:58:47;21.70;99.90
21559;DHT22;10940;48.890;8.240;2023-08-21T06:01:12;21.80;99.90
21559;DHT22;10940;48.890;8.240;2023-08-21T06:03:38;21.80;99.90
21559;DHT22;10940;48.890;8.240;2023-08-21T06:06:04;21.90;99.90
21559;DHT22;10940;48.890;8.240;2023-08-21T06:08:29;21.90;99.90
21559;DHT22;10940;48.890;8.240;2023-08-21T06:10:55;22.00;99.90
21559;DHT22;10940;48.890;8.240;2023-08-21T06:13:21;22.10;99.90
21559;DHT22;10940;48.890;8.240;2023-08-21T06:15:47;22.20;99.90
21559;DHT22;10940;48.890;8.240;2023-08-21T06:18:13;22.20;99.90
21559;DHT22;10940;48.890;8.240;2023-08-21T06:20:42;22.30;99.90
21559;DHT22;10940;48.890;8.240;2023-08-21T06:23:09;22.40;99.90
21559;DHT22;10940;48.890;8.240;2023-08-21T06:25:35;22.50;99.90
21559;DHT22;10940;48.890;8.240;2023-08-21T06:28:00;22.60;99.90
21559;DHT22;10940;48.890;8.240;2023-08-21T06:30:27;22.60;99.90
21559;DHT22;10940;48.890;8.240;2023-08-21T06:32:52;22.70;99.90
21559;DHT22;10940;48.890;8.240;2023-08-21T06:35:18;22.80;99.90
21559;DHT22;10940;48.890;8.240;2023-08-21T06:37:44;22.90;99.90
21559;DHT22;10940;48.890;8.240;2023-08-21T06:40:09;23.00;99.90
21559;DHT22;10940;48.890;8.240;2023-08-21T06:42:35;23.10;99.90
21559;DHT22;10940;48.890;8.240;2023-08-21T06:45:03;23.20;99.90
21559;DHT22;10940;48.890;8.240;2023-08-21T06:47:29;23.20;99.90
21559;DHT22;10940;48.890;8.240;2023-08-21T06:49:54;23.40;99.90
21559;DHT22;10940;48.890;8.240;2023-08-21T06:52:20;23.50;99.90
21559;DHT22;10940;48.890;8.240;2023-08-21T06:54:45;23.60;99.90
21559;DHT22;10940;48.890;8.240;2023-08-21T06:57:11;23.70;99.90
21559;DHT22;10940;48.890;8.240;2023-08-21T06:59:36;23.80;99.90
21559;DHT22;10940;48.890;8.240;2023-08-21T07:02:03;23.90;99.90
21559;DHT22;10940;48.890;8.240;2023-08-21T07:04:29;24.00;99.90
21559;DHT22;10940;48.890;8.240;2023-08-21T07:06:55;24.10;99.90
21559;DHT22;10940;48.890;8.240;2023-08-21T07:09:20;24.20;99.90
21559;DHT22;10940;48.890;8.240;2023-08-21T07:11:46;24.30;99.90
21559;DHT22;10940;48.890;8.240;2023-08-21T07:14:11;24.40;99.90
21559;DHT22;10940;48.890;8.240;2023-08-21T07:16:39;24.50;99.90
21559;DHT22;10940;48.890;8.240;2023-08-21T07:19:05;24.60;99.90
21559;DHT22;10940;48.890;8.240;2023-08-21T07:21:30;24.60;99.90
21559;DHT22;10940;48.890;8.240;2023-08-21T07:23:56;24.70;99.90
21559;DHT22;10940;48.890;8.240;2023-08-21T07:26:21;24.80;99.90
21559;DHT22;10940;48.890;8.240;2023-08-21T07:28:47;24.80;99.90
21559;DHT22;10940;48.890;8.240;2023-08-21T07:31:12;24.90;99.90
21559;DHT22;10940;48.890;8.240;2023-08-21T07:33:38;24.90;99.90
21559;DHT22;10940;48.890;8.240;2023-08-21T07:36:05;25.00;99.90
21559;DHT22;10940;48.890;8.240;2023-08-21T07:38:31;25.10;99.90
21559;DHT22;10940;48.890;8.240;2023-08-21T07:41:08;25.10;99.90
21559;DHT22;10940;48.890;8.240;2023-08-21T07:43:36;25.20;99.90
21559;DHT22;10940;48.890;8.240;2023-08-21T07:46:03;25.30;99.90
21559;DHT22;10940;48.890;8.240;2023-08-21T07:48:28;25.40;99.90
21559;DHT22;10940;48.890;8.240;2023-08-21T07:50:54;25.40;99.90
21559;DHT22;10940;48.890;8.240;2023-08-21T07:53:20;25.50;99.90
21559;DHT22;10940;48.890;8.240;2023-08-21T07:55:46;25.70;99.90
21559;DHT22;10940;48.890;8.240;2023-08-21T07:58:11;25.70;99.90
21559;DHT22;10940;48.890;8.240;2023-08-21T08:00:38;25.80;99.90
21559;DHT22;10940;48.890;8.240;2023-08-21T08:03:04;25.90;99.90
21559;DHT22;10940;48.890;8.240;2023-08-21T08:05:31;25.90;99.90
21559;DHT22;10940;48.890;8.240;2023-08-21T08:07:56;25.90;99.90
21559;DHT22;10940;48.890;8.240;2023-08-21T08:10:23;26.00;99.90
21559;DHT22;10940;48.890;8.240;2023-08-21T08:12:48;26.10;99.90
21559;DHT22;10940;48.890;8.240;2023-08-21T08:15:14;26.10;99.90
21559;DHT22;10940;48.890;8.240;2023-08-21T08:17:40;26.20;99.90
21559;DHT22;10940;48.890;8.240;2023-08-21T08:20:06;26.20;99.90
21559;DHT22;10940;48.890;8.240;2023-08-21T08:22:32;26.30;99.90
21559;DHT22;10940;48.890;8.240;2023-08-21T08:24:57;26.40;99.90
21559;DHT22;10940;48.890;8.240;2023-08-21T08:27:23;26.50;99.90
21559;DHT22;10940;48.890;8.240;2023-08-21T08:29:49;26.60;99.90
21559;DHT22;10940;48.890;8.240;2023-08-21T08:32:14;26.70;99.90
21559;DHT22;10940;48.890;8.240;2023-08-21T08:34:40;26.70;99.90
21559;DHT22;10940;48.890;8.240;2023-08-21T08:37:06;26.80;99.90
21559;DHT22;10940;48.890;8.240;2023-08-21T08:39:31;26.90;99.90
21559;DHT22;10940;48.890;8.240;2023-08-21T08:41:58;26.90;99.90
21559;DHT22;10940;48.890;8.240;2023-08-21T08:44:29;27.10;99.90
21559;DHT22;10940;48.890;8.240;2023-08-21T08:46:55;27.20;99.90
21559;DHT22;10940;48.890;8.240;2023-08-21T08:49:22;27.30;99.90
21559;DHT22;10940;48.890;8.240;2023-08-21T08:51:49;27.40;99.90
21559;DHT22;10940;48.890;8.240;2023-08-21T08:54:16;27.50;99.90
21559;DHT22;10940;48.890;8.240;2023-08-21T08:56:42;27.50;99.90
21559;DHT22;10940;48.890;8.240;2023-08-21T08:59:08;27.70;99.90
21559;DHT22;10940;48.890;8.240;2023-08-21T09:01:34;27.70;99.90
21559;DHT22;10940;48.890;8.240;2023-08-21T09:04:00;27.80;99.90
21559;DHT22;10940;48.890;8.240;2023-08-21T09:06:26;27.80;99.90
21559;DHT22;10940;48.890;8.240;2023-08-21T09:08:56;27.90;99.90
21559;DHT22;10940;48.890;8.240;2023-08-21T09:11:22;28.00;99.90
21559;DHT22;10940;48.890;8.240;2023-08-21T09:13:52;28.00;99.90
21559;DHT22;10940;48.890;8.240;2023-08-21T09:16:19;28.20;99.90
21559;DHT22;10940;48.890;8.240;2023-08-21T09:18:53;28.30;99.90
21559;DHT22;10940;48.890;8.240;2023-08-21T09:21:20;28.30;99.90
21559;DHT22;10940;48.890;8.240;2023-08-21T09:23:47;28.30;99.90
21559;DHT22;10940;48.890;8.240;2023-08-21T09:26:20;28.40;99.90
21559;DHT22;10940;48.890;8.240;2023-08-21T09:28:49;28.40;99.90
21559;DHT22;10940;48.890;8.240;2023-08-21T09:31:15;28.50;99.90
21559;DHT22;10940;48.890;8.240;2023-08-21T09:33:41;28.50;99.90
21559;DHT22;10940;48.890;8.240;2023-08-21T09:36:06;28.50;99.90
21559;DHT22;10940;48.890;8.240;2023-08-21T09:38:35;28.60;99.90
21559;DHT22;10940;48.890;8.240;2023-08-21T09:41:01;28.70;99.90
21559;DHT22;10940;48.890;8.240;2023-08-21T09:43:26;28.70;99.90
21559;DHT22;10940;48.890;8.240;2023-08-21T09:45:53;28.70;99.90
21559;DHT22;10940;48.890;8.240;2023-08-21T09:48:25;28.70;99.90
21559;DHT22;10940;48.890;8.240;2023-08-21T09:50:55;28.90;99.90
21559;DHT22;10940;48.890;8.240;2023-08-21T09:53:21;28.90;99.90
21559;DHT22;10940;48.890;8.240;2023-08-21T09:55:51;28.90;99.90
21559;DHT22;10940;48.890;8.240;2023-08-21T09:58:19;29.00;99.90
21559;DHT22;10940;48.890;8.240;2023-08-21T10:00:45;29.10;99.90
21559;DHT22;10940;48.890;8.240;2023-08-21T10:03:18;29.00;99.90
21559;DHT22;10940;48.890;8.240;2023-08-21T10:05:45;29.10;99.90
21559;DHT22;10940;48.890;8.240;2023-08-21T10:08:15;29.10;99.90
21559;DHT22;10940;48.890;8.240;2023-08-21T10:10:41;29.10;99.90
21559;DHT22;10940;48.890;8.240;2023-08-21T10:13:08;29.20;99.90
21559;DHT22;10940;48.890;8.240;2023-08-21T10:15:34;29.30;99.90
21559;DHT22;10940;48.890;8.240;2023-08-21T10:18:24;29.40;99.90
21559;DHT22;10940;48.890;8.240;2023-08-21T10:20:51;29.50;99.90
21559;DHT22;10940;48.890;8.240;2023-08-21T10:23:31;29.50;99.90
21559;DHT22;10940;48.890;8.240;2023-08-21T10:26:01;29.60;99.90
21559;DHT22;10940;48.890;8.240;2023-08-21T10:31:37;29.80;99.90
21559;DHT22;10940;48.890;8.240;2023-08-21T10:34:08;29.80;99.90
21559;DHT22;10940;48.890;8.240;2023-08-21T10:39:16;29.90;99.90
21559;DHT22;10940;48.890;8.240;2023-08-21T10:44:47;30.10;99.90
21559;DHT22;10940;48.890;8.240;2023-08-21T10:49:56;30.30;99.90
21559;DHT22;10940;48.890;8.240;2023-08-21T10:52:34;30.40;99.90
21559;DHT22;10940;48.890;8.240;2023-08-21T10:55:01;30.50;99.90
21559;DHT22;10940;48.890;8.240;2023-08-21T10:57:32;30.60;99.90
21559;DHT22;10940;48.890;8.240;2023-08-21T11:00:04;30.70;99.90
21559;DHT22;10940;48.890;8.240;2023-08-21T11:02:31;30.80;99.90
21559;DHT22;10940;48.890;8.240;2023-08-21T11:04:58;31.00;99.90
21559;DHT22;10940;48.890;8.240;2023-08-21T11:07:26;31.10;99.90
21559;DHT22;10940;48.890;8.240;2023-08-21T11:09:51;31.20;99.90
21559;DHT22;10940;48.890;8.240;2023-08-21T11:12:19;31.30;99.90
21559;DHT22;10940;48.890;8.240;2023-08-21T11:14:45;31.30;99.90
21559;DHT22;10940;48.890;8.240;2023-08-21T11:17:11;31.50;99.90
21559;DHT22;10940;48.890;8.240;2023-08-21T11:19:38;31.50;99.90
21559;DHT22;10940;48.890;8.240;2023-08-21T11:22:05;31.50;99.90
21559;DHT22;10940;48.890;8.240;2023-08-21T11:27:09;31.70;99.90
21559;DHT22;10940;48.890;8.240;2023-08-21T11:32:15;31.80;99.90
21559;DHT22;10940;48.890;8.240;2023-08-21T11:34:47;32.00;99.90
21559;DHT22;10940;48.890;8.240;2023-08-21T11:37:12;32.10;99.90
21559;DHT22;10940;48.890;8.240;2023-08-21T11:39:44;32.30;99.90
21559;DHT22;10940;48.890;8.240;2023-08-21T11:42:11;32.40;99.90
21559;DHT22;10940;48.890;8.240;2023-08-21T11:44:49;32.40;99.90
21559;DHT22;10940;48.890;8.240;2023-08-21T11:47:17;32.50;99.90
21559;DHT22;10940;48.890;8.240;2023-08-21T11:49:44;32.50;99.90
21559;DHT22;10940;48.890;8.240;2023-08-21T11:52:10;32.70;99.90
21559;DHT22;10940;48.890;8.240;2023-08-21T11:54:37;32.80;99.90
21559;DHT22;10940;48.890;8.240;2023-08-21T11:57:13;33.00;99.90
21559;DHT22;10940;48.890;8.240;2023-08-21T11:59:40;33.10;99.90
21559;DHT22;10940;48.890;8.240;2023-08-21T12:04:35;33.50;99.90
21559;DHT22;10940;48.890;8.240;2023-08-21T12:07:01;33.60;99.90
21559;DHT22;10940;48.890;8.240;2023-08-21T12:09:26;33.70;99.90
21559;DHT22;10940;48.890;8.240;2023-08-21T12:11:52;33.90;99.90
21559;DHT22;10940;48.890;8.240;2023-08-21T12:14:18;34.00;99.90
21559;DHT22;10940;48.890;8.240;2023-08-21T12:16:43;34.20;99.90
21559;DHT22;10940;48.890;8.240;2023-08-21T12:19:09;34.20;99.90
21559;DHT22;10940;48.890;8.240;2023-08-21T12:21:37;34.20;99.90
21559;DHT22;10940;48.890;8.240;2023-08-21T12:24:04;34.00;99.90
21559;DHT22;10940;48.890;8.240;2023-08-21T12:26:30;33.80;99.90
21559;DHT22;10940;48.890;8.240;2023-08-21T12:28:56;33.70;99.90
21559;DHT22;10940;48.890;8.240;2023-08-21T12:31:22;33.70;99.90
21559;DHT22;10940;48.890;8.240;2023-08-21T12:33:47;33.90;99.90
21559;DHT22;10940;48.890;8.240;2023-08-21T12:36:13;33.90;99.90
21559;DHT22;10940;48.890;8.240;2023-08-21T12:38:39;34.00;99.90
21559;DHT22;10940;48.890;8.240;2023-08-21T12:41:04;34.00;99.90
21559;DHT22;10940;48.890;8.240;2023-08-21T12:43:30;33.80;99.90
21559;DHT22;10940;48.890;8.240;2023-08-21T12:45:57;33.70;99.90
21559;DHT22;10940;48.890;8.240;2023-08-21T12:48:23;33.70;99.90
21559;DHT22;10940;48.890;8.240;2023-08-21T12:50:49;33.90;99.90
21559;DHT22;10940;48.890;8.240;2023-08-21T12:53:15;34.00;99.90
21559;DHT22;10940;48.890;8.240;2023-08-21T12:55:41;34.10;99.90
21559;DHT22;10940;48.890;8.240;2023-08-21T12:58:08;34.10;99.90
21559;DHT22;10940;48.890;8.240;2023-08-21T13:00:33;34.30;99.90
21559;DHT22;10940;48.890;8.240;2023-08-21T13:02:59;34.50;99.90
21559;DHT22;10940;48.890;8.240;2023-08-21T13:05:25;34.60;99.90
21559;DHT22;10940;48.890;8.240;2023-08-21T13:07:50;34.60;99.90
21559;DHT22;10940;48.890;8.240;2023-08-21T13:10:16;34.70;99.90
21559;DHT22;10940;48.890;8.240;2023-08-21T13:12:41;34.60;99.90
21559;DHT22;10940;48.890;8.240;2023-08-21T13:15:08;34.70;99.90
21559;DHT22;10940;48.890;8.240;2023-08-21T13:17:34;34.80;99.90
21559;DHT22;10940;48.890;8.240;2023-08-21T13:20:00;34.80;99.90
21559;DHT22;10940;48.890;8.240;2023-08-21T13:22:26;34.80;99.90
21559;DHT22;10940;48.890;8.240;2023-08-21T13:24:51;34.80;99.90
21559;DHT22;10940;48.890;8.240;2023-08-21T13:27:17;34.80;99.90
21559;DHT22;10940;48.890;8.240;2023-08-21T13:29:42;34.80;99.90
21559;DHT22;10940;48.890;8.240;2023-08-21T13:32:09;34.80;99.90
21559;DHT22;10940;48.890;8.240;2023-08-21T13:34:36;34.90;99.90
21559;DHT22;10940;48.890;8.240;2023-08-21T13:37:01;34.90;99.90
21559;DHT22;10940;48.890;8.240;2023-08-21T13:39:28;34.80;99.90
21559;DHT22;10940;48.890;8.240;2023-08-21T13:41:53;34.60;99.90
21559;DHT22;10940;48.890;8.240;2023-08-21T13:44:19;34.50;99.90
21559;DHT22;10940;48.890;8.240;2023-08-21T13:46:44;34.50;99.90
21559;DHT22;10940;48.890;8.240;2023-08-21T13:49:10;34.60;99.90
21559;DHT22;10940;48.890;8.240;2023-08-21T13:51:36;34.60;99.90
21559;DHT22;10940;48.890;8.240;2023-08-21T13:54:01;34.60;99.90
21559;DHT22;10940;48.890;8.240;2023-08-21T13:56:27;34.50;99.90
21559;DHT22;10940;48.890;8.240;2023-08-21T13:58:53;34.30;99.90
21559;DHT22;10940;48.890;8.240;2023-08-21T14:01:18;34.30;99.90
21559;DHT22;10940;48.890;8.240;2023-08-21T14:03:44;34.10;99.90
21559;DHT22;10940;48.890;8.240;2023-08-21T14:06:11;34.10;99.90
21559;DHT22;10940;48.890;8.240;2023-08-21T14:08:38;34.10;99.90
21559;DHT22;10940;48.890;8.240;2023-08-21T14:11:03;34.20;99.90
21559;DHT22;10940;48.890;8.240;2023-08-21T14:13:29;34.20;99.90
21559;DHT22;10940;48.890;8.240;2023-08-21T14:15:55;34.30;99.90
21559;DHT22;10940;48.890;8.240;2023-08-21T14:18:20;34.30;99.90
21559;DHT22;10940;48.890;8.240;2023-08-21T14:20:46;34.30;99.90
21559;DHT22;10940;48.890;8.240;2023-08-21T14:23:12;34.40;99.90
21559;DHT22;10940;48.890;8.240;2023-08-21T14:25:37;34.40;99.90
21559;DHT22;10940;48.890;8.240;2023-08-21T14:28:04;34.30;99.90
21559;DHT22;10940;48.890;8.240;2023-08-21T14:30:29;34.30;99.90
21559;DHT22;10940;48.890;8.240;2023-08-21T14:32:55;34.30;99.90
21559;DHT22;10940;48.890;8.240;2023-08-21T14:35:21;34.30;99.90
21559;DHT22;10940;48.890;8.240;2023-08-21T14:37:47;34.40;99.90
21559;DHT22;10940;48.890;8.240;2023-08-21T14:40:13;34.50;99.90
21559;DHT22;10940;48.890;8.240;2023-08-21T14:42:39;34.40;99.90
21559;DHT22;10940;48.890;8.240;2023-08-21T14:45:05;34.30;99.90
21559;DHT22;10940;48.890;8.240;2023-08-21T14:47:31;34.20;99.90
21559;DHT22;10940;48.890;8.240;2023-08-21T14:49:57;34.10;99.90
21559;DHT22;10940;48.890;8.240;2023-08-21T14:52:23;34.10;99.90
21559;DHT22;10940;48.890;8.240;2023-08-21T14:54:50;34.10;99.90
21559;DHT22;10940;48.890;8.240;2023-08-21T14:57:16;33.90;99.90
21559;DHT22;10940;48.890;8.240;2023-08-21T14:59:42;33.70;99.90
21559;DHT22;10940;48.890;8.240;2023-08-21T15:02:08;33.70;99.90
21559;DHT22;10940;48.890;8.240;2023-08-21T15:04:33;33.80;99.90
21559;DHT22;10940;48.890;8.240;2023-08-21T15:06:59;33.80;99.90
21559;DHT22;10940;48.890;8.240;2023-08-21T15:09:24;33.90;99.90
21559;DHT22;10940;48.890;8.240;2023-08-21T15:11:50;34.00;99.90
21559;DHT22;10940;48.890;8.240;2023-08-21T15:14:15;34.10;99.90
21559;DHT22;10940;48.890;8.240;2023-08-21T15:16:41;34.10;99.90
21559;DHT22;10940;48.890;8.240;2023-08-21T15:19:07;34.10;99.90
21559;DHT22;10940;48.890;8.240;2023-08-21T15:21:33;34.10;99.90
21559;DHT22;10940;48.890;8.240;2023-08-21T15:23:59;34.10;99.90
21559;DHT22;10940;48.890;8.240;2023-08-21T15:26:25;34.10;99.90
21559;DHT22;10940;48.890;8.240;2023-08-21T15:28:51;34.00;99.90
21559;DHT22;10940;48.890;8.240;2023-08-21T15:31:16;34.00;99.90
21559;DHT22;10940;48.890;8.240;2023-08-21T15:33:42;33.80;99.90
21559;DHT22;10940;48.890;8.240;2023-08-21T15:36:08;33.90;99.90
21559;DHT22;10940;48.890;8.240;2023-08-21T15:38:34;33.90;99.90
21559;DHT22;10940;48.890;8.240;2023-08-21T15:40:59;33.90;99.90
21559;DHT22;10940;48.890;8.240;2023-08-21T15:43:25;33.90;99.90
21559;DHT22;10940;48.890;8.240;2023-08-21T15:45:51;33.90;99.90
21559;DHT22;10940;48.890;8.240;2023-08-21T15:48:17;33.90;99.90